sensor_id;sensor_type;location;lat;lon;timestamp;temperature;humidity
78315;SHT31;68596;52.080;4.662;2023-03-31T00:00:54;13.35;72.87
78315;SHT31;68596;52.080;4.662;2023-03-31T00:03:41;13.39;73.07
78315;SHT31;68596;52.080;4.662;2023-03-31T00:06:27;13.35;73.14
78315;SHT31;68596;52.080;4.662;2023-03-31T00:09:13;13.36;73.08
78315;SHT31;68596;52.080;4.662;2023-03-31T00:12:05;13.34;72.97
78315;SHT31;68596;52.080;4.662;2023-03-31T00:14:49;13.29;73.04
78315;SHT31;68596;52.080;4.662;2023-03-31T00:17:33;13.28;73.31
78315;SHT31;68596;52.080;4.662;2023-03-31T00:20:18;13.28;73.49
78315;SHT31;68596;52.080;4.662;2023-03-31T00:23:03;13.26;73.44
78315;SHT31;68596;52.080;4.662;2023-03-31T00:25:54;13.22;73.37
78315;SHT31;68596;52.080;4.662;2023-03-31T00:28:38;13.18;73.88
78315;SHT31;68596;52.080;4.662;2023-03-31T00:31:23;13.14;74.50
78315;SHT31;68596;52.080;4.662;2023-03-31T00:34:08;13.05;75.42
78315;SHT31;68596;52.080;4.662;2023-03-31T00:36:53;13.02;75.89
78315;SHT31;68596;52.080;4.662;2023-03-31T00:39:39;13.02;76.01
78315;SHT31;68596;52.080;4.662;2023-03-31T00:42:24;13.04;76.12
78315;SHT31;68596;52.080;4.662;2023-03-31T00:48:10;13.07;75.76
78315;SHT31;68596;52.080;4.662;2023-03-31T00:51:02;13.10;75.65
78315;SHT31;68596;52.080;4.662;2023-03-31T00:53:53;13.12;75.54
78315;SHT31;68596;52.080;4.662;2023-03-31T00:56:44;13.08;75.68
78315;SHT31;68596;52.080;4.662;2023-03-31T00:59:36;13.07;75.99
78315;SHT31;68596;52.080;4.662;2023-03-31T01:02:22;13.04;76.07
78315;SHT31;68596;52.080;4.662;2023-03-31T01:05:08;12.94;76.37
78315;SHT31;68596;52.080;4.662;2023-03-31T01:07:53;12.92;76.68
78315;SHT31;68596;52.080;4.662;2023-03-31T01:10:42;12.92;76.85
78315;SHT31;68596;52.080;4.662;2023-03-31T01:13:29;12.95;76.97
78315;SHT31;68596;52.080;4.662;2023-03-31T01:16:15;12.92;77.31
78315;SHT31;68596;52.080;4.662;2023-03-31T01:19:00;12.98;77.03
78315;SHT31;68596;52.080;4.662;2023-03-31T01:22:15;12.98;77.13
78315;SHT31;68596;52.080;4.662;2023-03-31T01:40:54;13.00;77.83
78315;SHT31;68596;52.080;4.662;2023-03-31T01:47:14;13.08;77.79
78315;SHT31;68596;52.080;4.662;2023-03-31T01:50:07;13.10;78.28
78315;SHT31;68596;52.080;4.662;2023-03-31T01:59:28;13.08;78.34
78315;SHT31;68596;52.080;4.662;2023-03-31T02:02:30;13.11;78.28
78315;SHT31;68596;52.080;4.662;2023-03-31T02:05:19;13.11;78.70
78315;SHT31;68596;52.080;4.662;2023-03-31T02:08:11;13.08;78.42
78315;SHT31;68596;52.080;4.662;2023-03-31T02:10:58;13.10;78.82
78315;SHT31;68596;52.080;4.662;2023-03-31T02:13:46;13.01;79.04
78315;SHT31;68596;52.080;4.662;2023-03-31T02:16:37;12.97;79.32
78315;SHT31;68596;52.080;4.662;2023-03-31T02:19:32;13.00;79.39
78315;SHT31;68596;52.080;4.662;2023-03-31T02:22:21;12.92;79.28
78315;SHT31;68596;52.080;4.662;2023-03-31T02:25:11;12.97;79.12
78315;SHT31;68596;52.080;4.662;2023-03-31T02:28:05;12.94;79.31
78315;SHT31;68596;52.080;4.662;2023-03-31T02:30:54;12.92;79.33
78315;SHT31;68596;52.080;4.662;2023-03-31T02:33:42;12.91;79.16
78315;SHT31;68596;52.080;4.662;2023-03-31T02:36:26;12.87;79.35
78315;SHT31;68596;52.080;4.662;2023-03-31T02:39:16;12.91;79.29
78315;SHT31;68596;52.080;4.662;2023-03-31T02:42:03;12.85;79.17
78315;SHT31;68596;52.080;4.662;2023-03-31T02:44:50;12.74;79.59
78315;SHT31;68596;52.080;4.662;2023-03-31T02:47:34;12.71;79.98
78315;SHT31;68596;52.080;4.662;2023-03-31T02:50:25;12.74;79.76
78315;SHT31;68596;52.080;4.662;2023-03-31T03:02:39;12.77;79.43
78315;SHT31;68596;52.080;4.662;2023-03-31T03:17:48;12.76;78.97
78315;SHT31;68596;52.080;4.662;2023-03-31T03:20:33;12.70;79.02
78315;SHT31;68596;52.080;4.662;2023-03-31T03:23:19;12.61;79.31
78315;SHT31;68596;52.080;4.662;2023-03-31T03:26:03;12.57;79.62
78315;SHT31;68596;52.080;4.662;2023-03-31T03:28:48;12.53;79.50
78315;SHT31;68596;52.080;4.662;2023-03-31T03:31:33;12.50;79.75
78315;SHT31;68596;52.080;4.662;2023-03-31T03:34:17;12.47;79.73
78315;SHT31;68596;52.080;4.662;2023-03-31T03:37:03;12.46;79.51
78315;SHT31;68596;52.080;4.662;2023-03-31T03:39:47;12.50;79.54
78315;SHT31;68596;52.080;4.662;2023-03-31T03:42:32;12.49;79.53
78315;SHT31;68596;52.080;4.662;2023-03-31T03:45:16;12.43;79.52
78315;SHT31;68596;52.080;4.662;2023-03-31T03:48:00;12.46;79.62
78315;SHT31;68596;52.080;4.662;2023-03-31T03:50:45;12.47;79.62
78315;SHT31;68596;52.080;4.662;2023-03-31T03:53:30;12.51;79.56
78315;SHT31;68596;52.080;4.662;2023-03-31T03:56:14;12.59;79.43
78315;SHT31;68596;52.080;4.662;2023-03-31T03:58:58;12.64;79.24
78315;SHT31;68596;52.080;4.662;2023-03-31T04:01:42;12.67;79.02
78315;SHT31;68596;52.080;4.662;2023-03-31T04:04:27;12.63;79.06
78315;SHT31;68596;52.080;4.662;2023-03-31T04:07:11;12.63;79.38
78315;SHT31;68596;52.080;4.662;2023-03-31T04:09:55;12.60;79.45
78315;SHT31;68596;52.080;4.662;2023-03-31T04:12:39;12.68;79.40
78315;SHT31;68596;52.080;4.662;2023-03-31T04:15:24;12.68;79.57
78315;SHT31;68596;52.080;4.662;2023-03-31T04:18:09;12.77;79.68
78315;SHT31;68596;52.080;4.662;2023-03-31T04:20:53;12.79;79.11
78315;SHT31;68596;52.080;4.662;2023-03-31T04:23:51;12.76;79.40
78315;SHT31;68596;52.080;4.662;2023-03-31T04:26:41;12.71;79.40
78315;SHT31;68596;52.080;4.662;2023-03-31T04:29:25;12.64;80.04
78315;SHT31;68596;52.080;4.662;2023-03-31T04:32:09;12.60;80.68
78315;SHT31;68596;52.080;4.662;2023-03-31T04:34:57;12.56;80.21
78315;SHT31;68596;52.080;4.662;2023-03-31T04:37:49;12.60;80.22
78315;SHT31;68596;52.080;4.662;2023-03-31T04:40:34;12.61;79.98
78315;SHT31;68596;52.080;4.662;2023-03-31T04:43:20;12.53;80.17
78315;SHT31;68596;52.080;4.662;2023-03-31T04:46:05;12.51;80.42
78315;SHT31;68596;52.080;4.662;2023-03-31T04:48:49;12.50;80.35
78315;SHT31;68596;52.080;4.662;2023-03-31T04:51:33;12.51;80.31
78315;SHT31;68596;52.080;4.662;2023-03-31T04:54:17;12.50;80.39
78315;SHT31;68596;52.080;4.662;2023-03-31T04:57:01;12.53;80.23
78315;SHT31;68596;52.080;4.662;2023-03-31T04:59:45;12.47;80.39
78315;SHT31;68596;52.080;4.662;2023-03-31T05:02:29;12.46;80.56
78315;SHT31;68596;52.080;4.662;2023-03-31T05:05:13;12.41;80.35
78315;SHT31;68596;52.080;4.662;2023-03-31T05:07:58;12.36;81.01
78315;SHT31;68596;52.080;4.662;2023-03-31T05:10:42;12.29;81.06
78315;SHT31;68596;52.080;4.662;2023-03-31T05:13:26;12.30;81.05
78315;SHT31;68596;52.080;4.662;2023-03-31T05:16:12;12.36;80.69
78315;SHT31;68596;52.080;4.662;2023-03-31T05:18:57;12.36;80.75
78315;SHT31;68596;52.080;4.662;2023-03-31T05:21:41;12.41;80.53
78315;SHT31;68596;52.080;4.662;2023-03-31T05:24:25;12.41;80.62
78315;SHT31;68596;52.080;4.662;2023-03-31T05:27:11;12.39;80.56
78315;SHT31;68596;52.080;4.662;2023-03-31T05:29:55;12.39;80.76
78315;SHT31;68596;52.080;4.662;2023-03-31T05:32:39;12.40;80.62
78315;SHT31;68596;52.080;4.662;2023-03-31T05:35:23;12.37;80.65
78315;SHT31;68596;52.080;4.662;2023-03-31T05:38:07;12.33;80.59
78315;SHT31;68596;52.080;4.662;2023-03-31T05:40:51;12.36;80.72
78315;SHT31;68596;52.080;4.662;2023-03-31T05:43:36;12.37;80.58
78315;SHT31;68596;52.080;4.662;2023-03-31T05:46:21;12.44;80.27
78315;SHT31;68596;52.080;4.662;2023-03-31T05:49:05;12.43;80.31
78315;SHT31;68596;52.080;4.662;2023-03-31T05:51:52;12.47;79.86
78315;SHT31;68596;52.080;4.662;2023-03-31T05:54:37;12.30;80.21
78315;SHT31;68596;52.080;4.662;2023-03-31T05:57:21;12.37;80.34
78315;SHT31;68596;52.080;4.662;2023-03-31T06:00:05;12.41;80.07
78315;SHT31;68596;52.080;4.662;2023-03-31T06:02:53;12.46;79.81
78315;SHT31;68596;52.080;4.662;2023-03-31T06:05:37;12.41;79.96
78315;SHT31;68596;52.080;4.662;2023-03-31T06:08:22;12.34;79.96
78315;SHT31;68596;52.080;4.662;2023-03-31T06:11:08;12.33;80.05
78315;SHT31;68596;52.080;4.662;2023-03-31T06:13:53;12.39;79.71
78315;SHT31;68596;52.080;4.662;2023-03-31T06:16:37;12.46;79.65
78315;SHT31;68596;52.080;4.662;2023-03-31T06:19:21;12.50;79.00
78315;SHT31;68596;52.080;4.662;2023-03-31T06:22:07;12.49;79.05
78315;SHT31;68596;52.080;4.662;2023-03-31T06:24:51;12.53;79.05
78315;SHT31;68596;52.080;4.662;2023-03-31T06:27:35;12.53;79.14
78315;SHT31;68596;52.080;4.662;2023-03-31T06:30:19;12.64;78.95
78315;SHT31;68596;52.080;4.662;2023-03-31T06:33:04;12.67;78.75
78315;SHT31;68596;52.080;4.662;2023-03-31T06:35:48;12.60;79.14
78315;SHT31;68596;52.080;4.662;2023-03-31T06:38:34;12.59;79.13
78315;SHT31;68596;52.080;4.662;2023-03-31T06:41:19;12.47;79.45
78315;SHT31;68596;52.080;4.662;2023-03-31T06:44:04;12.46;79.98
78315;SHT31;68596;52.080;4.662;2023-03-31T06:46:49;12.50;79.98
78315;SHT31;68596;52.080;4.662;2023-03-31T06:49:33;12.57;79.89
78315;SHT31;68596;52.080;4.662;2023-03-31T06:52:17;12.53;79.87
78315;SHT31;68596;52.080;4.662;2023-03-31T06:55:01;12.59;79.77
78315;SHT31;68596;52.080;4.662;2023-03-31T06:57:45;12.49;80.16
78315;SHT31;68596;52.080;4.662;2023-03-31T07:00:31;12.47;80.23
78315;SHT31;68596;52.080;4.662;2023-03-31T07:03:15;12.50;79.92
78315;SHT31;68596;52.080;4.662;2023-03-31T07:06:05;12.49;80.01
78315;SHT31;68596;52.080;4.662;2023-03-31T07:08:49;12.47;80.21
78315;SHT31;68596;52.080;4.662;2023-03-31T07:11:33;12.49;80.13
78315;SHT31;68596;52.080;4.662;2023-03-31T07:14:17;12.54;80.36
78315;SHT31;68596;52.080;4.662;2023-03-31T07:17:02;12.54;79.91
78315;SHT31;68596;52.080;4.662;2023-03-31T07:19:46;12.56;79.96
78315;SHT31;68596;52.080;4.662;2023-03-31T07:22:30;12.61;79.78
78315;SHT31;68596;52.080;4.662;2023-03-31T07:25:16;12.61;79.85
78315;SHT31;68596;52.080;4.662;2023-03-31T07:28:00;12.64;79.73
78315;SHT31;68596;52.080;4.662;2023-03-31T07:30:45;12.67;80.02
78315;SHT31;68596;52.080;4.662;2023-03-31T07:33:29;12.73;80.02
78315;SHT31;68596;52.080;4.662;2023-03-31T07:36:13;12.79;79.73
78315;SHT31;68596;52.080;4.662;2023-03-31T07:38:57;12.77;79.67
78315;SHT31;68596;52.080;4.662;2023-03-31T07:41:41;12.85;79.44
78315;SHT31;68596;52.080;4.662;2023-03-31T07:44:25;13.00;79.09
78315;SHT31;68596;52.080;4.662;2023-03-31T07:47:09;13.05;79.01
78315;SHT31;68596;52.080;4.662;2023-03-31T07:49:53;13.11;79.18
78315;SHT31;68596;52.080;4.662;2023-03-31T07:52:38;13.14;78.94
78315;SHT31;68596;52.080;4.662;2023-03-31T07:55:23;13.21;78.63
78315;SHT31;68596;52.080;4.662;2023-03-31T07:58:09;13.26;78.64
78315;SHT31;68596;52.080;4.662;2023-03-31T08:00:54;13.32;78.49
78315;SHT31;68596;52.080;4.662;2023-03-31T08:03:38;13.39;78.41
78315;SHT31;68596;52.080;4.662;2023-03-31T08:06:24;13.42;78.03
78315;SHT31;68596;52.080;4.662;2023-03-31T08:09:08;13.46;78.12
78315;SHT31;68596;52.080;4.662;2023-03-31T08:11:53;13.45;78.14
78315;SHT31;68596;52.080;4.662;2023-03-31T08:14:37;13.34;78.04
78315;SHT31;68596;52.080;4.662;2023-03-31T08:17:21;13.26;78.49
78315;SHT31;68596;52.080;4.662;2023-03-31T08:20:06;13.31;78.58
78315;SHT31;68596;52.080;4.662;2023-03-31T08:22:50;13.44;78.21
78315;SHT31;68596;52.080;4.662;2023-03-31T08:25:35;13.46;77.72
78315;SHT31;68596;52.080;4.662;2023-03-31T08:28:19;13.53;78.00
78315;SHT31;68596;52.080;4.662;2023-03-31T08:31:07;13.61;77.75
78315;SHT31;68596;52.080;4.662;2023-03-31T08:33:52;13.70;77.56
78315;SHT31;68596;52.080;4.662;2023-03-31T08:36:36;13.67;77.57
78315;SHT31;68596;52.080;4.662;2023-03-31T08:39:20;13.65;77.49
78315;SHT31;68596;52.080;4.662;2023-03-31T08:42:16;13.59;77.28
78315;SHT31;68596;52.080;4.662;2023-03-31T08:45:22;13.39;78.13
78315;SHT31;68596;52.080;4.662;2023-03-31T08:48:46;13.39;77.93
78315;SHT31;68596;52.080;4.662;2023-03-31T08:51:40;13.41;78.11
78315;SHT31;68596;52.080;4.662;2023-03-31T08:54:39;13.46;78.11
78315;SHT31;68596;52.080;4.662;2023-03-31T08:57:50;13.51;77.79
78315;SHT31;68596;52.080;4.662;2023-03-31T09:01:04;13.59;77.96
78315;SHT31;68596;52.080;4.662;2023-03-31T09:07:02;13.51;77.64
78315;SHT31;68596;52.080;4.662;2023-03-31T09:10:05;13.65;76.89
78315;SHT31;68596;52.080;4.662;2023-03-31T09:16:44;14.09;76.48
78315;SHT31;68596;52.080;4.662;2023-03-31T09:19:18;14.18;76.26
78315;SHT31;68596;52.080;4.662;2023-03-31T09:22:13;14.26;75.13
78315;SHT31;68596;52.080;4.662;2023-03-31T09:25:10;14.10;75.00
78315;SHT31;68596;52.080;4.662;2023-03-31T09:27:58;13.96;75.24
78315;SHT31;68596;52.080;4.662;2023-03-31T09:30:47;13.97;75.65
78315;SHT31;68596;52.080;4.662;2023-03-31T09:33:41;13.90;75.71
78315;SHT31;68596;52.080;4.662;2023-03-31T09:36:27;13.83;75.10
78315;SHT31;68596;52.080;4.662;2023-03-31T09:39:13;13.87;75.72
78315;SHT31;68596;52.080;4.662;2023-03-31T09:41:58;13.93;75.19
78315;SHT31;68596;52.080;4.662;2023-03-31T09:44:46;13.89;75.26
78315;SHT31;68596;52.080;4.662;2023-03-31T09:47:40;13.90;75.40
78315;SHT31;68596;52.080;4.662;2023-03-31T09:50:25;13.87;75.73
78315;SHT31;68596;52.080;4.662;2023-03-31T09:53:39;13.86;74.64
78315;SHT31;68596;52.080;4.662;2023-03-31T09:59:32;13.76;75.38
78315;SHT31;68596;52.080;4.662;2023-03-31T10:02:33;13.79;75.53
78315;SHT31;68596;52.080;4.662;2023-03-31T10:08:20;13.77;75.64
78315;SHT31;68596;52.080;4.662;2023-03-31T10:11:09;13.79;75.47
78315;SHT31;68596;52.080;4.662;2023-03-31T10:14:13;13.75;75.15
78315;SHT31;68596;52.080;4.662;2023-03-31T10:17:03;13.59;75.70
78315;SHT31;68596;52.080;4.662;2023-03-31T10:19:53;13.53;76.24
78315;SHT31;68596;52.080;4.662;2023-03-31T10:22:43;13.56;75.94
78315;SHT31;68596;52.080;4.662;2023-03-31T10:25:28;13.53;75.60
78315;SHT31;68596;52.080;4.662;2023-03-31T10:28:17;13.62;76.44
78315;SHT31;68596;52.080;4.662;2023-03-31T10:31:02;13.63;76.41
78315;SHT31;68596;52.080;4.662;2023-03-31T10:33:49;13.76;76.13
78315;SHT31;68596;52.080;4.662;2023-03-31T10:36:35;13.76;75.06
78315;SHT31;68596;52.080;4.662;2023-03-31T10:39:28;13.76;75.67
78315;SHT31;68596;52.080;4.662;2023-03-31T10:42:20;13.75;75.58
78315;SHT31;68596;52.080;4.662;2023-03-31T10:45:12;13.69;75.90
78315;SHT31;68596;52.080;4.662;2023-03-31T10:47:58;13.58;74.48
78315;SHT31;68596;52.080;4.662;2023-03-31T10:50:43;13.56;77.06
78315;SHT31;68596;52.080;4.662;2023-03-31T10:53:27;13.52;77.02
78315;SHT31;68596;52.080;4.662;2023-03-31T11:02:28;13.63;77.35
78315;SHT31;68596;52.080;4.662;2023-03-31T11:08:47;13.87;76.64
78315;SHT31;68596;52.080;4.662;2023-03-31T11:33:35;13.63;76.78
78315;SHT31;68596;52.080;4.662;2023-03-31T11:39:34;13.62;77.60
78315;SHT31;68596;52.080;4.662;2023-03-31T11:42:49;13.61;77.57
78315;SHT31;68596;52.080;4.662;2023-03-31T11:45:40;13.69;77.73
78315;SHT31;68596;52.080;4.662;2023-03-31T11:48:52;13.79;76.94
78315;SHT31;68596;52.080;4.662;2023-03-31T11:51:46;13.85;76.78
78315;SHT31;68596;52.080;4.662;2023-03-31T11:54:47;13.77;76.33
78315;SHT31;68596;52.080;4.662;2023-03-31T11:57:44;13.96;76.40
78315;SHT31;68596;52.080;4.662;2023-03-31T12:00:37;13.91;76.18
78315;SHT31;68596;52.080;4.662;2023-03-31T12:06:30;13.90;76.54
78315;SHT31;68596;52.080;4.662;2023-03-31T12:12:42;13.89;75.90
78315;SHT31;68596;52.080;4.662;2023-03-31T12:15:41;13.80;75.24
78315;SHT31;68596;52.080;4.662;2023-03-31T12:18:31;13.80;76.10
78315;SHT31;68596;52.080;4.662;2023-03-31T12:21:19;13.73;75.61
78315;SHT31;68596;52.080;4.662;2023-03-31T12:24:05;13.63;76.15
78315;SHT31;68596;52.080;4.662;2023-03-31T12:26:51;13.58;77.01
78315;SHT31;68596;52.080;4.662;2023-03-31T12:29:50;13.63;77.10
78315;SHT31;68596;52.080;4.662;2023-03-31T12:32:49;13.65;76.13
78315;SHT31;68596;52.080;4.662;2023-03-31T12:45:38;13.53;77.59
78315;SHT31;68596;52.080;4.662;2023-03-31T12:51:19;13.29;77.99
78315;SHT31;68596;52.080;4.662;2023-03-31T12:57:20;13.38;78.49
78315;SHT31;68596;52.080;4.662;2023-03-31T13:11:57;13.76;78.06
78315;SHT31;68596;52.080;4.662;2023-03-31T13:14:45;13.69;78.27
78315;SHT31;68596;52.080;4.662;2023-03-31T13:17:32;13.65;78.98
78315;SHT31;68596;52.080;4.662;2023-03-31T13:23:22;13.66;79.23
78315;SHT31;68596;52.080;4.662;2023-03-31T13:29:22;13.65;78.33
78315;SHT31;68596;52.080;4.662;2023-03-31T13:32:20;13.63;78.56
78315;SHT31;68596;52.080;4.662;2023-03-31T13:35:14;13.66;78.68
78315;SHT31;68596;52.080;4.662;2023-03-31T13:48:01;13.91;77.31
78315;SHT31;68596;52.080;4.662;2023-03-31T13:50:52;13.97;77.40
78315;SHT31;68596;52.080;4.662;2023-03-31T13:53:51;13.96;77.06
78315;SHT31;68596;52.080;4.662;2023-03-31T14:06:34;13.76;77.92
78315;SHT31;68596;52.080;4.662;2023-03-31T14:09:31;13.67;78.07
78315;SHT31;68596;52.080;4.662;2023-03-31T14:15:20;13.70;78.41
78315;SHT31;68596;52.080;4.662;2023-03-31T14:18:05;13.66;78.20
78315;SHT31;68596;52.080;4.662;2023-03-31T14:27:26;13.46;77.73
78315;SHT31;68596;52.080;4.662;2023-03-31T14:33:53;13.39;77.90
78315;SHT31;68596;52.080;4.662;2023-03-31T14:37:05;13.38;77.75
78315;SHT31;68596;52.080;4.662;2023-03-31T14:39:54;13.29;78.83
78315;SHT31;68596;52.080;4.662;2023-03-31T14:42:41;13.29;78.15
78315;SHT31;68596;52.080;4.662;2023-03-31T14:45:32;13.22;78.70
78315;SHT31;68596;52.080;4.662;2023-03-31T14:48:17;13.29;78.69
78315;SHT31;68596;52.080;4.662;2023-03-31T14:51:07;13.21;78.18
78315;SHT31;68596;52.080;4.662;2023-03-31T14:54:16;13.10;78.29
78315;SHT31;68596;52.080;4.662;2023-03-31T14:57:01;13.12;78.20
78315;SHT31;68596;52.080;4.662;2023-03-31T14:59:50;13.12;78.05
78315;SHT31;68596;52.080;4.662;2023-03-31T15:02:40;13.10;77.85
78315;SHT31;68596;52.080;4.662;2023-03-31T15:08:19;13.12;78.47
78315;SHT31;68596;52.080;4.662;2023-03-31T15:11:11;13.24;78.27
78315;SHT31;68596;52.080;4.662;2023-03-31T15:13:58;13.10;78.31
78315;SHT31;68596;52.080;4.662;2023-03-31T15:16:44;13.08;78.88
78315;SHT31;68596;52.080;4.662;2023-03-31T15:19:33;13.10;78.85
78315;SHT31;68596;52.080;4.662;2023-03-31T15:22:17;13.19;79.03
78315;SHT31;68596;52.080;4.662;2023-03-31T15:25:02;13.19;78.62
78315;SHT31;68596;52.080;4.662;2023-03-31T15:27:53;13.07;79.22
78315;SHT31;68596;52.080;4.662;2023-03-31T15:30:39;13.08;79.36
78315;SHT31;68596;52.080;4.662;2023-03-31T15:33:31;12.98;79.18
78315;SHT31;68596;52.080;4.662;2023-03-31T15:36:16;12.98;79.69
78315;SHT31;68596;52.080;4.662;2023-03-31T15:39:00;13.11;79.21
78315;SHT31;68596;52.080;4.662;2023-03-31T15:41:47;13.14;78.77
78315;SHT31;68596;52.080;4.662;2023-03-31T15:48:02;13.18;79.10
78315;SHT31;68596;52.080;4.662;2023-03-31T15:50:47;13.16;78.97
78315;SHT31;68596;52.080;4.662;2023-03-31T15:53:36;13.10;78.71
78315;SHT31;68596;52.080;4.662;2023-03-31T15:56:27;13.07;79.84
78315;SHT31;68596;52.080;4.662;2023-03-31T15:59:22;13.10;79.56
78315;SHT31;68596;52.080;4.662;2023-03-31T16:02:12;13.12;79.59
78315;SHT31;68596;52.080;4.662;2023-03-31T16:04:58;13.08;79.52
78315;SHT31;68596;52.080;4.662;2023-03-31T16:07:42;12.97;80.00
78315;SHT31;68596;52.080;4.662;2023-03-31T16:10:29;12.90;80.30
78315;SHT31;68596;52.080;4.662;2023-03-31T16:13:19;12.79;80.46
78315;SHT31;68596;52.080;4.662;2023-03-31T16:16:11;12.74;80.92
78315;SHT31;68596;52.080;4.662;2023-03-31T16:19:04;12.65;81.15
78315;SHT31;68596;52.080;4.662;2023-03-31T16:21:52;12.68;81.01
78315;SHT31;68596;52.080;4.662;2023-03-31T16:24:37;12.74;80.81
78315;SHT31;68596;52.080;4.662;2023-03-31T16:27:22;12.74;80.71
78315;SHT31;68596;52.080;4.662;2023-03-31T16:30:12;12.65;80.54
78315;SHT31;68596;52.080;4.662;2023-03-31T16:35:55;12.63;81.04
78315;SHT31;68596;52.080;4.662;2023-03-31T16:38:40;12.73;80.79
78315;SHT31;68596;52.080;4.662;2023-03-31T16:41:27;12.90;80.13
78315;SHT31;68596;52.080;4.662;2023-03-31T16:44:11;12.88;80.18
78315;SHT31;68596;52.080;4.662;2023-03-31T16:46:55;12.85;80.09
78315;SHT31;68596;52.080;4.662;2023-03-31T16:49:40;12.84;80.03
78315;SHT31;68596;52.080;4.662;2023-03-31T16:52:24;12.85;80.25
78315;SHT31;68596;52.080;4.662;2023-03-31T16:55:09;12.88;79.98
78315;SHT31;68596;52.080;4.662;2023-03-31T16:57:57;12.88;79.90
78315;SHT31;68596;52.080;4.662;2023-03-31T17:00:46;12.92;79.81
78315;SHT31;68596;52.080;4.662;2023-03-31T17:03:30;12.94;79.68
78315;SHT31;68596;52.080;4.662;2023-03-31T17:06:15;12.81;80.18
78315;SHT31;68596;52.080;4.662;2023-03-31T17:08:59;12.81;80.16
78315;SHT31;68596;52.080;4.662;2023-03-31T17:11:44;12.70;80.18
78315;SHT31;68596;52.080;4.662;2023-03-31T17:14:28;12.54;80.78
78315;SHT31;68596;52.080;4.662;2023-03-31T17:17:12;12.61;81.09
78315;SHT31;68596;52.080;4.662;2023-03-31T17:19:56;12.44;81.26
78315;SHT31;68596;52.080;4.662;2023-03-31T17:22:42;12.44;81.90
78315;SHT31;68596;52.080;4.662;2023-03-31T17:25:26;12.47;81.73
78315;SHT31;68596;52.080;4.662;2023-03-31T17:28:10;12.54;81.39
78315;SHT31;68596;52.080;4.662;2023-03-31T17:30:54;12.50;81.71
78315;SHT31;68596;52.080;4.662;2023-03-31T17:33:38;12.54;81.61
78315;SHT31;68596;52.080;4.662;2023-03-31T17:36:23;12.64;81.27
78315;SHT31;68596;52.080;4.662;2023-03-31T17:39:07;12.67;81.04
78315;SHT31;68596;52.080;4.662;2023-03-31T17:41:51;12.70;80.70
78315;SHT31;68596;52.080;4.662;2023-03-31T17:44:36;12.71;80.25
78315;SHT31;68596;52.080;4.662;2023-03-31T17:47:20;12.67;80.35
78315;SHT31;68596;52.080;4.662;2023-03-31T17:50:05;12.67;80.61
78315;SHT31;68596;52.080;4.662;2023-03-31T17:52:49;12.67;80.57
78315;SHT31;68596;52.080;4.662;2023-03-31T17:55:37;12.74;80.62
78315;SHT31;68596;52.080;4.662;2023-03-31T17:58:21;12.67;80.34
78315;SHT31;68596;52.080;4.662;2023-03-31T18:01:08;12.71;80.04
78315;SHT31;68596;52.080;4.662;2023-03-31T18:03:56;12.68;80.18
78315;SHT31;68596;52.080;4.662;2023-03-31T18:06:44;12.63;79.87
78315;SHT31;68596;52.080;4.662;2023-03-31T18:09:31;12.61;80.26
78315;SHT31;68596;52.080;4.662;2023-03-31T18:12:15;12.61;80.50
78315;SHT31;68596;52.080;4.662;2023-03-31T18:15:01;12.65;80.34
78315;SHT31;68596;52.080;4.662;2023-03-31T18:17:46;12.61;80.60
78315;SHT31;68596;52.080;4.662;2023-03-31T18:20:30;12.60;80.07
78315;SHT31;68596;52.080;4.662;2023-03-31T18:23:15;12.64;80.14
78315;SHT31;68596;52.080;4.662;2023-03-31T18:25:59;12.59;80.30
78315;SHT31;68596;52.080;4.662;2023-03-31T18:28:44;12.57;80.08
78315;SHT31;68596;52.080;4.662;2023-03-31T18:31:31;12.56;80.26
78315;SHT31;68596;52.080;4.662;2023-03-31T18:34:15;12.60;80.32
78315;SHT31;68596;52.080;4.662;2023-03-31T18:36:59;12.60;80.19
78315;SHT31;68596;52.080;4.662;2023-03-31T18:39:43;12.59;80.13
78315;SHT31;68596;52.080;4.662;2023-03-31T18:42:27;12.60;80.11
78315;SHT31;68596;52.080;4.662;2023-03-31T18:45:11;12.60;80.41
78315;SHT31;68596;52.080;4.662;2023-03-31T18:47:56;12.46;80.33
78315;SHT31;68596;52.080;4.662;2023-03-31T18:50:41;12.46;80.72
78315;SHT31;68596;52.080;4.662;2023-03-31T18:53:25;12.43;81.03
78315;SHT31;68596;52.080;4.662;2023-03-31T18:56:09;12.47;80.98
78315;SHT31;68596;52.080;4.662;2023-03-31T18:58:54;12.47;80.84
78315;SHT31;68596;52.080;4.662;2023-03-31T19:01:38;12.59;80.62
78315;SHT31;68596;52.080;4.662;2023-03-31T19:04:23;12.53;80.71
78315;SHT31;68596;52.080;4.662;2023-03-31T19:07:07;12.51;80.80
78315;SHT31;68596;52.080;4.662;2023-03-31T19:09:51;12.59;80.69
78315;SHT31;68596;52.080;4.662;2023-03-31T19:12:35;12.61;80.67
78315;SHT31;68596;52.080;4.662;2023-03-31T19:15:20;12.61;80.73
78315;SHT31;68596;52.080;4.662;2023-03-31T19:18:05;12.67;80.63
78315;SHT31;68596;52.080;4.662;2023-03-31T19:20:49;12.73;80.18
78315;SHT31;68596;52.080;4.662;2023-03-31T19:23:34;12.68;80.42
78315;SHT31;68596;52.080;4.662;2023-03-31T19:26:21;12.65;80.48
78315;SHT31;68596;52.080;4.662;2023-03-31T19:29:06;12.59;80.76
78315;SHT31;68596;52.080;4.662;2023-03-31T19:31:50;12.54;80.71
78315;SHT31;68596;52.080;4.662;2023-03-31T19:34:35;12.53;80.85
78315;SHT31;68596;52.080;4.662;2023-03-31T19:37:19;12.46;81.12
78315;SHT31;68596;52.080;4.662;2023-03-31T19:40:04;12.44;81.19
78315;SHT31;68596;52.080;4.662;2023-03-31T19:42:49;12.47;81.20
78315;SHT31;68596;52.080;4.662;2023-03-31T19:45:35;12.49;81.29
78315;SHT31;68596;52.080;4.662;2023-03-31T19:48:20;12.49;81.12
78315;SHT31;68596;52.080;4.662;2023-03-31T19:51:05;12.49;81.22
78315;SHT31;68596;52.080;4.662;2023-03-31T19:53:51;12.47;81.21
78315;SHT31;68596;52.080;4.662;2023-03-31T19:56:37;12.49;81.40
78315;SHT31;68596;52.080;4.662;2023-03-31T19:59:22;12.54;81.08
78315;SHT31;68596;52.080;4.662;2023-03-31T20:02:06;12.51;81.06
78315;SHT31;68596;52.080;4.662;2023-03-31T20:04:51;12.56;80.99
78315;SHT31;68596;52.080;4.662;2023-03-31T20:07:35;12.54;81.33
78315;SHT31;68596;52.080;4.662;2023-03-31T20:10:19;12.57;81.19
78315;SHT31;68596;52.080;4.662;2023-03-31T20:13:04;12.60;81.36
78315;SHT31;68596;52.080;4.662;2023-03-31T20:15:57;12.56;81.40
78315;SHT31;68596;52.080;4.662;2023-03-31T20:18:43;12.50;81.54
78315;SHT31;68596;52.080;4.662;2023-03-31T20:21:34;12.50;81.72
78315;SHT31;68596;52.080;4.662;2023-03-31T20:24:18;12.47;81.83
78315;SHT31;68596;52.080;4.662;2023-03-31T20:27:04;12.39;81.93
78315;SHT31;68596;52.080;4.662;2023-03-31T20:29:48;12.39;82.11
78315;SHT31;68596;52.080;4.662;2023-03-31T20:32:32;12.32;82.38
78315;SHT31;68596;52.080;4.662;2023-03-31T20:35:16;12.34;82.22
78315;SHT31;68596;52.080;4.662;2023-03-31T20:38:01;12.34;82.11